Terminal Aerodrome Forecast
Issued by NWS Charleston, WV

Current Version | Previous Version | Graphics & Text | Print | Product List | Glossary On
Versions: 1 2 3 4 5 6 7 8 9 10 11 12 13 14 15 16 17 18 19 20 21 22
000
FTUS41 KRLX 222337
TAFEKN
TAF
KEKN 222337Z 2300/2324 24004KT P6SM OVC040
     FM230200 23005KT P6SM SHRA OVC040
      TEMPO 2302/2306 4SM SHRA OVC025
     FM230600 22009KT 6SM SHRA OVC020
     FM231300 23010KT P6SM OVC025
     FM231600 24011KT P6SM BKN035=

USA.gov is the U.S. government's official web portal to all federal, state and local government web resources and services.